Orbital elements of COSMOS 2251 DEB
| Launched | 15 June 1993 |
| Flight ended | – |
| Launch site | Plesetsk Missile and Space Complex, Russia |
| Owner | Commonwealth of Independent States (former USSR) |
| NORAD ID | 46271 |
| Date fetched |
Epoch osculation |
Inc. [°] |
Ecc. | RA asc node [hr] |
Arg Peri. [°] |
Mean anom [°] |
Mean motion [rev/day] |
Abs. mag |
| Date fetched |
Epoch osculation |
Inc. [°] |
Ecc. | RA asc node [hr] |
Arg Peri. [°] |
Mean anom [°] |
Mean motion [rev/day] |
Abs. mag |
| 2026 May 05 17:57 | 2026 May 03 20:52:22 | 74.0453 | 0.00414 | 11.3859 | 255.2874 | 104.3701 | 14.51773 | – |
| 2026 May 04 17:57 | 2026 Apr 30 10:10:53 | 74.0458 | 0.00414 | 11.8182 | 262.4146 | 104.3701 | 14.51773 | – |
| 2026 May 03 17:57 | 2026 Apr 30 10:10:53 | 74.0458 | 0.00414 | 11.8182 | 262.4146 | 104.3701 | 14.51773 | – |
| 2026 May 02 17:57 | 2026 Apr 30 10:10:53 | 74.0458 | 0.00414 | 11.8182 | 262.4146 | 104.3701 | 14.51773 | – |
| 2026 May 01 17:56 | 2026 Apr 30 10:10:53 | 74.0458 | 0.00414 | 11.8182 | 262.4146 | 104.3701 | 14.51773 | – |
| 2026 Apr 30 17:56 | 2026 Apr 30 10:10:53 | 74.0458 | 0.00414 | 11.8182 | 262.4146 | 104.3701 | 14.51773 | – |
| 2026 Apr 29 17:57 | 2026 Apr 21 22:45:32 | 74.0466 | 0.00412 | 12.8815 | 280.0230 | 104.3701 | 14.51773 | – |
| 2026 Apr 28 17:56 | 2026 Apr 21 22:45:32 | 74.0466 | 0.00412 | 12.8815 | 280.0230 | 104.3701 | 14.51773 | – |
| 2026 Apr 27 17:58 | 2026 Apr 21 22:45:32 | 74.0466 | 0.00412 | 12.8815 | 280.0230 | 104.3701 | 14.51773 | – |
| 2026 Apr 26 17:58 | 2026 Apr 21 22:45:32 | 74.0466 | 0.00412 | 12.8815 | 280.0230 | 104.3701 | 14.51773 | – |
| 2026 Apr 25 17:58 | 2026 Apr 21 22:45:32 | 74.0466 | 0.00412 | 12.8815 | 280.0230 | 104.3701 | 14.51773 | – |
| 2026 Apr 24 17:59 | 2026 Apr 21 22:45:32 | 74.0466 | 0.00412 | 12.8815 | 280.0230 | 104.3701 | 14.51773 | – |
| 2026 Apr 23 17:57 | 2026 Apr 18 12:03:59 | 74.0468 | 0.00412 | 13.3137 | 287.2002 | 104.3701 | 14.51773 | – |
| 2026 Apr 22 17:57 | 2026 Apr 18 12:03:59 | 74.0468 | 0.00412 | 13.3137 | 287.2002 | 104.3701 | 14.51773 | – |
| 2026 Apr 21 17:57 | 2026 Apr 18 12:03:59 | 74.0468 | 0.00412 | 13.3137 | 287.2002 | 104.3701 | 14.51773 | – |
| 2026 Apr 20 17:57 | 2026 Apr 18 12:03:59 | 74.0468 | 0.00412 | 13.3137 | 287.2002 | 104.3701 | 14.51773 | – |
| 2026 Apr 19 17:58 | 2026 Apr 18 12:03:59 | 74.0468 | 0.00412 | 13.3137 | 287.2002 | 104.3701 | 14.51773 | – |
| 2026 Apr 18 17:56 | 2026 Apr 12 00:36:15 | 74.0464 | 0.00410 | 14.1263 | 300.6751 | 104.3701 | 14.51773 | – |
| 2026 Apr 16 17:57 | 2026 Apr 12 00:36:15 | 74.0464 | 0.00410 | 14.1263 | 300.6751 | 104.3701 | 14.51773 | – |
| 2026 Apr 14 17:57 | 2026 Apr 12 00:36:15 | 74.0464 | 0.00410 | 14.1263 | 300.6751 | 104.3701 | 14.51773 | – |
| 2026 Apr 13 17:57 | 2026 Apr 12 00:36:15 | 74.0464 | 0.00410 | 14.1263 | 300.6751 | 104.3701 | 14.51773 | – |
| 2026 Apr 12 17:57 | 2026 Apr 07 14:45:26 | 74.0462 | 0.00408 | 14.6796 | 309.9240 | 104.3701 | 14.51773 | – |
| 2026 Apr 11 17:57 | 2026 Apr 07 14:45:26 | 74.0462 | 0.00408 | 14.6796 | 309.9240 | 104.3701 | 14.51773 | – |
| 2026 Apr 10 17:58 | 2026 Apr 07 14:45:26 | 74.0462 | 0.00408 | 14.6796 | 309.9240 | 104.3701 | 14.51773 | – |
| 2026 Apr 09 18:01 | 2026 Apr 07 14:45:26 | 74.0462 | 0.00408 | 14.6796 | 309.9240 | 104.3701 | 14.51773 | – |
| 2026 Apr 08 17:57 | 2026 Apr 07 14:45:26 | 74.0462 | 0.00408 | 14.6796 | 309.9240 | 104.3701 | 14.51773 | – |